DLH93T LWSK-EDDF
Flight info
| Callsign | DLH93T |
|---|---|
| Flight time | 2h 6m |
| Altitude | 38000 |
| Route | GOSTI DCT MAVAR DCT ALELU DCT MODRA DCT LURID DCT PETOV DCT GOLVA DCT SIMBA DCT AKINI T161 DEBHI DEBHI1B |
| Aircraft | A320/M-SDE2E3FGIJ1LORWXYZ/HB1 |
Departure
| Time | 2026-05-07 14:00 |
|---|---|
| Airport | Skopje International Airport (LWSK) |
Arrival
| Time | 2026-05-07 16:06 |
|---|---|
| Airport | Frankfurt Main Airport (EDDF) |
| Time | Latitude | Longitude | Altitude | Speed | Heading |
|---|---|---|---|---|---|
| 2026-05-07 13:15 | 41.96144 | 21.62571 | 789 ft | 0 kts | 76° |
| 2026-05-07 13:54 | 41.96141 | 21.62556 | 788 ft | 2 kts | 76° |
| 2026-05-07 13:54 | 41.96138 | 21.62539 | 788 ft | 0 kts | 76° |
| 2026-05-07 13:54 | 41.96134 | 21.62524 | 788 ft | 2 kts | 48° |
| 2026-05-07 13:54 | 41.96121 | 21.62513 | 787 ft | 2 kts | 12° |
| 2026-05-07 13:55 | 41.96112 | 21.62512 | 787 ft | 0 kts | 349° |
| 2026-05-07 13:55 | 41.96104 | 21.62515 | 787 ft | 0 kts | 346° |
| 2026-05-07 13:56 | 41.96129 | 21.62481 | 787 ft | 12 kts | 273° |
| 2026-05-07 13:57 | 41.96040 | 21.62455 | 784 ft | 21 kts | 165° |
| 2026-05-07 13:57 | 41.95871 | 21.62517 | 783 ft | 25 kts | 164° |
| 2026-05-07 13:57 | 41.95696 | 21.62580 | 781 ft | 25 kts | 166° |
| 2026-05-07 13:57 | 41.95522 | 21.62639 | 779 ft | 25 kts | 166° |
| 2026-05-07 13:58 | 41.95349 | 21.62701 | 777 ft | 25 kts | 164° |
| 2026-05-07 13:58 | 41.95189 | 21.62756 | 778 ft | 19 kts | 173° |
| 2026-05-07 13:58 | 41.95124 | 21.62618 | 774 ft | 20 kts | 257° |
| 2026-05-07 13:58 | 41.95141 | 21.62502 | 772 ft | 7 kts | 336° |
| 2026-05-07 13:59 | 41.95165 | 21.62492 | 773 ft | 2 kts | 345° |
| 2026-05-07 13:59 | 41.95335 | 21.62433 | 771 ft | 67 kts | 346° |
| 2026-05-07 13:59 | 41.96064 | 21.62178 | 780 ft | 146 kts | 346° |
| 2026-05-07 13:59 | 41.97152 | 21.61789 | 1199 ft | 174 kts | 344° |
| 2026-05-07 14:00 | 41.98356 | 21.61321 | 1913 ft | 188 kts | 345° |
| 2026-05-07 14:00 | 41.99581 | 21.60896 | 2911 ft | 187 kts | 347° |
| 2026-05-07 14:00 | 42.00886 | 21.60659 | 3462 ft | 198 kts | 8° |
| 2026-05-07 14:00 | 42.02175 | 21.61423 | 3922 ft | 211 kts | 44° |
| 2026-05-07 14:01 | 42.02953 | 21.63115 | 4374 ft | 224 kts | 77° |
| 2026-05-07 14:01 | 42.02873 | 21.65230 | 4760 ft | 242 kts | 115° |
| 2026-05-07 14:01 | 42.01772 | 21.66968 | 5272 ft | 255 kts | 152° |
| 2026-05-07 14:01 | 42.00063 | 21.67475 | 6018 ft | 258 kts | 189° |
| 2026-05-07 14:02 | 41.98385 | 21.66706 | 6866 ft | 258 kts | 208° |
| 2026-05-07 14:02 | 41.96819 | 21.65543 | 7700 ft | 262 kts | 212° |
| 2026-05-07 14:02 | 41.95226 | 21.64345 | 8557 ft | 264 kts | 212° |
| 2026-05-07 14:02 | 41.93793 | 21.62893 | 9374 ft | 263 kts | 231° |
| 2026-05-07 14:03 | 41.92875 | 21.60776 | 10082 ft | 268 kts | 252° |
| 2026-05-07 14:03 | 41.92323 | 21.58376 | 10737 ft | 276 kts | 254° |
| 2026-05-07 14:03 | 41.91765 | 21.55895 | 11487 ft | 279 kts | 254° |
| 2026-05-07 14:03 | 41.91194 | 21.53390 | 12284 ft | 282 kts | 253° |
| 2026-05-07 14:04 | 41.90614 | 21.50876 | 13036 ft | 284 kts | 253° |
| 2026-05-07 14:04 | 41.90028 | 21.48353 | 13756 ft | 287 kts | 253° |
| 2026-05-07 14:04 | 41.89438 | 21.45826 | 14473 ft | 289 kts | 253° |
| 2026-05-07 14:04 | 41.88834 | 21.43249 | 15142 ft | 292 kts | 253° |
| 2026-05-07 14:05 | 41.88223 | 21.40650 | 15803 ft | 295 kts | 253° |
| 2026-05-07 14:05 | 41.87606 | 21.38033 | 16451 ft | 298 kts | 253° |
| 2026-05-07 14:05 | 41.86975 | 21.35359 | 17087 ft | 301 kts | 253° |
| 2026-05-07 14:05 | 41.86350 | 21.32713 | 17691 ft | 304 kts | 252° |
| 2026-05-07 14:06 | 41.85707 | 21.29992 | 18309 ft | 307 kts | 252° |
| 2026-05-07 14:06 | 41.85065 | 21.27279 | 18923 ft | 310 kts | 252° |
| 2026-05-07 14:06 | 41.84405 | 21.24493 | 19532 ft | 313 kts | 252° |
| 2026-05-07 14:06 | 41.83746 | 21.21715 | 20110 ft | 316 kts | 252° |
| 2026-05-07 14:07 | 41.83079 | 21.18912 | 20680 ft | 319 kts | 252° |
| 2026-05-07 14:07 | 41.82413 | 21.16114 | 21251 ft | 321 kts | 252° |
| 2026-05-07 14:07 | 41.81734 | 21.13265 | 21825 ft | 324 kts | 252° |
| 2026-05-07 14:07 | 41.81047 | 21.10389 | 22385 ft | 326 kts | 252° |
| 2026-05-07 14:08 | 41.80342 | 21.07478 | 22915 ft | 329 kts | 252° |
| 2026-05-07 14:08 | 41.79638 | 21.04584 | 23444 ft | 332 kts | 252° |
| 2026-05-07 14:08 | 41.78924 | 21.01653 | 23955 ft | 334 kts | 252° |
| 2026-05-07 14:08 | 41.78199 | 20.98676 | 24477 ft | 337 kts | 252° |
| 2026-05-07 14:09 | 41.77469 | 20.95684 | 24993 ft | 339 kts | 252° |
| 2026-05-07 14:09 | 41.76740 | 20.92689 | 25457 ft | 342 kts | 252° |
| 2026-05-07 14:09 | 41.76008 | 20.89693 | 25918 ft | 344 kts | 252° |
| 2026-05-07 14:09 | 41.75264 | 20.86643 | 26393 ft | 346 kts | 252° |
| 2026-05-07 14:10 | 41.74514 | 20.83572 | 26851 ft | 348 kts | 252° |
| 2026-05-07 14:10 | 41.73770 | 20.80530 | 27285 ft | 350 kts | 252° |
| 2026-05-07 14:10 | 41.73010 | 20.77427 | 27732 ft | 351 kts | 252° |
| 2026-05-07 14:10 | 41.72252 | 20.74339 | 28207 ft | 352 kts | 252° |
| 2026-05-07 14:11 | 41.71492 | 20.71246 | 28620 ft | 353 kts | 252° |
| 2026-05-07 14:11 | 41.70723 | 20.68127 | 29030 ft | 355 kts | 252° |
| 2026-05-07 14:11 | 41.69952 | 20.64973 | 29425 ft | 356 kts | 255° |
| 2026-05-07 14:11 | 41.69497 | 20.61718 | 29765 ft | 358 kts | 266° |
| 2026-05-07 14:12 | 41.69544 | 20.58421 | 30145 ft | 360 kts | 277° |
| 2026-05-07 14:12 | 41.70074 | 20.55172 | 30507 ft | 363 kts | 287° |
| 2026-05-07 14:12 | 41.71098 | 20.52053 | 30857 ft | 367 kts | 297° |
| 2026-05-07 14:12 | 41.72575 | 20.49251 | 31171 ft | 373 kts | 308° |
| 2026-05-07 14:13 | 41.74487 | 20.46854 | 31468 ft | 381 kts | 320° |
| 2026-05-07 14:13 | 41.76678 | 20.44905 | 31811 ft | 384 kts | 324° |
| 2026-05-07 14:13 | 41.78951 | 20.43014 | 32137 ft | 386 kts | 324° |
| 2026-05-07 14:13 | 41.81239 | 20.41121 | 32442 ft | 387 kts | 324° |
| 2026-05-07 14:14 | 41.83527 | 20.39227 | 32721 ft | 389 kts | 324° |
| 2026-05-07 14:14 | 41.85847 | 20.37303 | 32999 ft | 391 kts | 324° |
| 2026-05-07 14:14 | 41.88155 | 20.35383 | 33280 ft | 393 kts | 324° |
| 2026-05-07 14:14 | 41.90459 | 20.33463 | 33541 ft | 395 kts | 323° |
| 2026-05-07 14:15 | 41.92802 | 20.31510 | 33827 ft | 396 kts | 323° |
| 2026-05-07 14:15 | 41.95134 | 20.29566 | 34150 ft | 397 kts | 323° |
| 2026-05-07 14:15 | 41.97492 | 20.27598 | 34408 ft | 398 kts | 323° |
| 2026-05-07 14:15 | 41.99844 | 20.25631 | 34639 ft | 400 kts | 323° |
| 2026-05-07 14:16 | 42.02210 | 20.23649 | 34889 ft | 401 kts | 323° |
| 2026-05-07 14:16 | 42.04562 | 20.21678 | 35019 ft | 402 kts | 323° |
| 2026-05-07 14:16 | 42.06947 | 20.19679 | 35369 ft | 403 kts | 323° |
| 2026-05-07 14:17 | 42.11716 | 20.15673 | 35503 ft | 408 kts | 323° |
| 2026-05-07 14:17 | 42.14123 | 20.13650 | 35675 ft | 409 kts | 323° |
| 2026-05-07 14:17 | 42.16526 | 20.11628 | 35852 ft | 410 kts | 323° |
| 2026-05-07 14:17 | 42.18938 | 20.09596 | 36003 ft | 411 kts | 323° |
| 2026-05-07 14:18 | 42.21365 | 20.07550 | 36171 ft | 411 kts | 323° |
| 2026-05-07 14:18 | 42.23799 | 20.05494 | 36360 ft | 412 kts | 323° |
| 2026-05-07 14:18 | 42.26238 | 20.03435 | 36541 ft | 413 kts | 323° |
| 2026-05-07 14:18 | 42.28650 | 20.01396 | 36715 ft | 415 kts | 323° |
| 2026-05-07 14:19 | 42.31102 | 19.99322 | 36890 ft | 415 kts | 323° |
| 2026-05-07 14:19 | 42.33531 | 19.97264 | 37095 ft | 416 kts | 323° |
| 2026-05-07 14:19 | 42.35998 | 19.95175 | 37299 ft | 415 kts | 323° |
| 2026-05-07 14:19 | 42.38448 | 19.93097 | 37472 ft | 415 kts | 323° |
| 2026-05-07 14:20 | 42.40886 | 19.91024 | 37630 ft | 415 kts | 323° |
| 2026-05-07 14:20 | 42.43326 | 19.88952 | 37775 ft | 416 kts | 323° |
| 2026-05-07 14:20 | 42.45845 | 19.86963 | 37893 ft | 419 kts | 326° |
| 2026-05-07 14:20 | 42.48412 | 19.85172 | 38009 ft | 422 kts | 329° |
| 2026-05-07 14:21 | 42.51104 | 19.83535 | 38080 ft | 425 kts | 332° |
| 2026-05-07 14:21 | 42.56663 | 19.80691 | 38101 ft | 427 kts | 335° |
| 2026-05-07 14:22 | 42.62233 | 19.77954 | 38106 ft | 428 kts | 335° |
| 2026-05-07 14:22 | 42.67829 | 19.75194 | 38103 ft | 428 kts | 335° |
| 2026-05-07 14:23 | 42.73397 | 19.72438 | 38101 ft | 428 kts | 335° |
| 2026-05-07 14:23 | 42.78964 | 19.69677 | 38105 ft | 427 kts | 335° |
| 2026-05-07 14:24 | 42.84559 | 19.66895 | 38103 ft | 428 kts | 335° |
| 2026-05-07 14:24 | 42.90153 | 19.64111 | 38097 ft | 427 kts | 335° |
| 2026-05-07 14:25 | 42.95665 | 19.61286 | 38100 ft | 426 kts | 332° |
| 2026-05-07 14:25 | 43.00982 | 19.57817 | 38094 ft | 423 kts | 327° |
| 2026-05-07 14:26 | 43.05977 | 19.53609 | 38102 ft | 419 kts | 321° |
| 2026-05-07 14:26 | 43.10683 | 19.49007 | 38092 ft | 419 kts | 320° |
| 2026-05-07 14:27 | 43.15419 | 19.44318 | 38092 ft | 419 kts | 320° |
| 2026-05-07 14:27 | 43.20151 | 19.39628 | 38084 ft | 420 kts | 320° |
| 2026-05-07 14:28 | 43.24874 | 19.34939 | 38081 ft | 420 kts | 319° |
| 2026-05-07 14:28 | 43.29580 | 19.30266 | 38076 ft | 420 kts | 319° |
| 2026-05-07 14:29 | 43.34309 | 19.25552 | 38069 ft | 421 kts | 319° |
| 2026-05-07 14:29 | 43.39033 | 19.20838 | 38072 ft | 421 kts | 319° |
| 2026-05-07 14:30 | 43.43786 | 19.16090 | 38071 ft | 421 kts | 319° |
| 2026-05-07 14:30 | 43.48487 | 19.11380 | 38072 ft | 421 kts | 319° |
| 2026-05-07 14:31 | 43.53210 | 19.06639 | 38079 ft | 420 kts | 319° |
| 2026-05-07 14:31 | 43.57933 | 19.01887 | 38074 ft | 421 kts | 319° |
| 2026-05-07 14:32 | 43.62660 | 18.97126 | 38064 ft | 422 kts | 319° |
| 2026-05-07 14:32 | 43.67366 | 18.92374 | 38071 ft | 421 kts | 319° |
| 2026-05-07 14:33 | 43.72103 | 18.87583 | 38062 ft | 422 kts | 319° |
| 2026-05-07 14:33 | 43.76812 | 18.82806 | 38064 ft | 422 kts | 319° |
| 2026-05-07 14:34 | 43.81551 | 18.77991 | 38062 ft | 423 kts | 319° |
| 2026-05-07 14:34 | 43.86247 | 18.73208 | 38053 ft | 423 kts | 319° |
| 2026-05-07 14:35 | 43.90978 | 18.68385 | 38048 ft | 423 kts | 319° |
| 2026-05-07 14:35 | 43.95724 | 18.63535 | 38046 ft | 423 kts | 319° |
| 2026-05-07 14:36 | 44.00459 | 18.58685 | 38046 ft | 424 kts | 319° |
| 2026-05-07 14:36 | 44.05184 | 18.53837 | 38043 ft | 424 kts | 319° |
| 2026-05-07 14:37 | 44.09905 | 18.48983 | 38042 ft | 424 kts | 319° |
| 2026-05-07 14:37 | 44.17014 | 18.41657 | 38036 ft | 424 kts | 319° |
| 2026-05-07 14:38 | 44.21756 | 18.36755 | 38034 ft | 425 kts | 319° |
| 2026-05-07 14:38 | 44.26491 | 18.31852 | 38030 ft | 426 kts | 318° |
| 2026-05-07 14:39 | 44.31213 | 18.26952 | 38030 ft | 425 kts | 318° |
| 2026-05-07 14:39 | 44.35980 | 18.21995 | 38030 ft | 426 kts | 318° |
| 2026-05-07 14:40 | 44.40716 | 18.17061 | 38031 ft | 426 kts | 318° |
| 2026-05-07 14:40 | 44.45438 | 18.12133 | 38031 ft | 426 kts | 318° |
| 2026-05-07 14:41 | 44.50182 | 18.07166 | 38032 ft | 427 kts | 317° |
| 2026-05-07 14:41 | 44.54916 | 18.02203 | 38019 ft | 427 kts | 317° |
| 2026-05-07 14:42 | 44.59665 | 17.97214 | 38012 ft | 428 kts | 317° |
| 2026-05-07 14:42 | 44.64410 | 17.92220 | 37997 ft | 428 kts | 317° |
| 2026-05-07 14:43 | 44.69182 | 17.87185 | 37992 ft | 428 kts | 317° |
| 2026-05-07 14:43 | 44.73904 | 17.82192 | 37999 ft | 428 kts | 317° |
| 2026-05-07 14:44 | 44.78659 | 17.77152 | 38003 ft | 430 kts | 318° |
| 2026-05-07 14:44 | 44.83455 | 17.72063 | 38016 ft | 430 kts | 317° |
| 2026-05-07 14:45 | 44.88193 | 17.67022 | 37997 ft | 430 kts | 317° |
| 2026-05-07 14:45 | 44.92956 | 17.61944 | 37995 ft | 431 kts | 317° |
| 2026-05-07 14:46 | 44.97741 | 17.56833 | 37988 ft | 432 kts | 317° |
| 2026-05-07 14:46 | 45.02496 | 17.51741 | 37987 ft | 432 kts | 317° |
| 2026-05-07 14:47 | 45.07283 | 17.46606 | 37995 ft | 432 kts | 317° |
| 2026-05-07 14:47 | 45.12051 | 17.41479 | 37981 ft | 432 kts | 317° |
| 2026-05-07 14:48 | 45.16693 | 17.36174 | 37986 ft | 430 kts | 315° |
| 2026-05-07 14:48 | 45.21256 | 17.30770 | 37977 ft | 428 kts | 314° |
| 2026-05-07 14:49 | 45.25826 | 17.25351 | 37969 ft | 428 kts | 314° |
| 2026-05-07 14:49 | 45.30374 | 17.19953 | 37974 ft | 428 kts | 314° |
| 2026-05-07 14:50 | 45.34939 | 17.14522 | 37969 ft | 429 kts | 314° |
| 2026-05-07 14:50 | 45.39489 | 17.09104 | 37959 ft | 429 kts | 314° |
| 2026-05-07 14:51 | 45.44064 | 17.03640 | 37958 ft | 430 kts | 314° |
| 2026-05-07 14:51 | 45.48630 | 16.98181 | 37950 ft | 431 kts | 314° |
| 2026-05-07 14:52 | 45.53223 | 16.92675 | 37945 ft | 431 kts | 314° |
| 2026-05-07 14:52 | 45.57783 | 16.87194 | 37965 ft | 431 kts | 314° |
| 2026-05-07 14:53 | 45.62334 | 16.81715 | 37949 ft | 431 kts | 314° |
| 2026-05-07 14:53 | 45.66915 | 16.76188 | 37940 ft | 432 kts | 314° |
| 2026-05-07 14:54 | 45.71480 | 16.70669 | 37938 ft | 432 kts | 313° |
| 2026-05-07 14:54 | 45.76045 | 16.65137 | 37933 ft | 432 kts | 314° |
| 2026-05-07 14:55 | 45.80625 | 16.59577 | 37948 ft | 433 kts | 313° |
| 2026-05-07 14:55 | 45.85206 | 16.53998 | 37928 ft | 433 kts | 313° |
| 2026-05-07 14:56 | 45.89774 | 16.48424 | 37934 ft | 433 kts | 314° |
| 2026-05-07 14:56 | 45.94345 | 16.42835 | 37920 ft | 433 kts | 314° |
| 2026-05-07 14:57 | 45.98930 | 16.37214 | 37923 ft | 433 kts | 314° |
| 2026-05-07 14:57 | 46.03492 | 16.31611 | 37928 ft | 433 kts | 313° |
| 2026-05-07 14:58 | 46.08038 | 16.26012 | 37925 ft | 432 kts | 313° |
| 2026-05-07 14:58 | 46.12626 | 16.20353 | 37916 ft | 434 kts | 313° |
| 2026-05-07 14:59 | 46.17178 | 16.14724 | 37916 ft | 434 kts | 313° |
| 2026-05-07 14:59 | 46.21743 | 16.09063 | 37916 ft | 434 kts | 313° |
| 2026-05-07 15:00 | 46.26304 | 16.03394 | 37915 ft | 435 kts | 313° |
| 2026-05-07 15:00 | 46.31072 | 15.97977 | 37907 ft | 440 kts | 319° |
| 2026-05-07 15:01 | 46.36300 | 15.93246 | 37910 ft | 445 kts | 324° |
| 2026-05-07 15:01 | 46.41670 | 15.88915 | 37912 ft | 445 kts | 324° |
| 2026-05-07 15:02 | 46.47090 | 15.84554 | 37893 ft | 446 kts | 324° |
| 2026-05-07 15:02 | 46.52490 | 15.80188 | 37911 ft | 447 kts | 324° |
| 2026-05-07 15:03 | 46.57912 | 15.75786 | 37901 ft | 448 kts | 324° |
| 2026-05-07 15:03 | 46.63332 | 15.71362 | 37909 ft | 448 kts | 323° |
| 2026-05-07 15:04 | 46.68485 | 15.66455 | 37904 ft | 443 kts | 317° |
| 2026-05-07 15:04 | 46.73206 | 15.60749 | 37907 ft | 438 kts | 311° |
| 2026-05-07 15:05 | 46.77409 | 15.54397 | 37896 ft | 435 kts | 306° |
| 2026-05-07 15:05 | 46.81378 | 15.47804 | 37892 ft | 435 kts | 306° |
| 2026-05-07 15:06 | 46.85359 | 15.41162 | 37887 ft | 436 kts | 306° |
| 2026-05-07 15:06 | 46.89340 | 15.34514 | 37887 ft | 437 kts | 305° |
| 2026-05-07 15:07 | 46.93338 | 15.27823 | 37876 ft | 436 kts | 305° |
| 2026-05-07 15:07 | 46.97322 | 15.21143 | 37880 ft | 437 kts | 306° |
| 2026-05-07 15:08 | 47.01291 | 15.14470 | 37873 ft | 438 kts | 306° |
| 2026-05-07 15:08 | 47.05281 | 15.07758 | 37912 ft | 438 kts | 306° |
| 2026-05-07 15:09 | 47.09249 | 15.01060 | 37898 ft | 437 kts | 306° |
| 2026-05-07 15:09 | 47.13237 | 14.94311 | 37942 ft | 438 kts | 306° |
| 2026-05-07 15:10 | 47.17234 | 14.87531 | 37929 ft | 439 kts | 306° |
| 2026-05-07 15:10 | 47.21205 | 14.80778 | 37922 ft | 439 kts | 306° |
| 2026-05-07 15:11 | 47.25169 | 14.74016 | 37925 ft | 440 kts | 306° |
| 2026-05-07 15:11 | 47.29165 | 14.67186 | 37934 ft | 440 kts | 306° |
| 2026-05-07 15:12 | 47.33139 | 14.60373 | 37929 ft | 440 kts | 306° |
| 2026-05-07 15:12 | 47.37097 | 14.53573 | 37933 ft | 439 kts | 306° |
| 2026-05-07 15:13 | 47.41056 | 14.46752 | 37927 ft | 439 kts | 306° |
| 2026-05-07 15:13 | 47.44990 | 14.39961 | 37924 ft | 438 kts | 306° |
| 2026-05-07 15:14 | 47.48960 | 14.33087 | 37942 ft | 439 kts | 306° |
| 2026-05-07 15:14 | 47.52904 | 14.26241 | 37945 ft | 439 kts | 305° |
| 2026-05-07 15:15 | 47.56866 | 14.19344 | 37947 ft | 440 kts | 306° |
| 2026-05-07 15:15 | 47.60795 | 14.12491 | 37954 ft | 439 kts | 306° |
| 2026-05-07 15:16 | 47.64720 | 14.05623 | 37948 ft | 439 kts | 306° |
| 2026-05-07 15:16 | 47.68650 | 13.98732 | 37955 ft | 439 kts | 306° |
| 2026-05-07 15:17 | 47.72583 | 13.91822 | 37960 ft | 439 kts | 306° |
| 2026-05-07 15:17 | 47.76511 | 13.84900 | 37959 ft | 439 kts | 306° |
| 2026-05-07 15:18 | 47.80430 | 13.77973 | 37960 ft | 440 kts | 306° |
| 2026-05-07 15:18 | 47.84353 | 13.71024 | 37964 ft | 441 kts | 306° |
| 2026-05-07 15:19 | 47.88270 | 13.64064 | 37968 ft | 440 kts | 306° |
| 2026-05-07 15:19 | 47.92180 | 13.57101 | 37964 ft | 440 kts | 306° |
| 2026-05-07 15:20 | 47.96108 | 13.50087 | 37971 ft | 440 kts | 306° |
| 2026-05-07 15:20 | 48.00008 | 13.43107 | 37970 ft | 440 kts | 306° |
| 2026-05-07 15:21 | 48.03903 | 13.36118 | 37974 ft | 441 kts | 306° |
| 2026-05-07 15:21 | 48.07821 | 13.29071 | 37977 ft | 441 kts | 306° |
| 2026-05-07 15:22 | 48.11700 | 13.22072 | 37979 ft | 441 kts | 306° |
| 2026-05-07 15:22 | 48.15599 | 13.15023 | 37980 ft | 441 kts | 306° |
| 2026-05-07 15:23 | 48.19519 | 13.07912 | 37979 ft | 442 kts | 306° |
| 2026-05-07 15:23 | 48.23421 | 13.00877 | 37980 ft | 442 kts | 307° |
| 2026-05-07 15:24 | 48.27463 | 12.94007 | 37985 ft | 441 kts | 308° |
| 2026-05-07 15:24 | 48.31522 | 12.87146 | 37986 ft | 442 kts | 308° |
| 2026-05-07 15:25 | 48.35587 | 12.80247 | 37985 ft | 442 kts | 308° |
| 2026-05-07 15:25 | 48.39658 | 12.73314 | 37984 ft | 442 kts | 308° |
| 2026-05-07 15:26 | 48.43689 | 12.66430 | 37982 ft | 442 kts | 308° |
| 2026-05-07 15:26 | 48.47741 | 12.59493 | 37981 ft | 442 kts | 308° |
| 2026-05-07 15:27 | 48.51796 | 12.52531 | 37978 ft | 442 kts | 308° |
| 2026-05-07 15:27 | 48.55832 | 12.45587 | 37978 ft | 442 kts | 308° |
| 2026-05-07 15:28 | 48.59856 | 12.38645 | 37979 ft | 442 kts | 309° |
| 2026-05-07 15:28 | 48.63907 | 12.31639 | 37979 ft | 442 kts | 308° |
| 2026-05-07 15:29 | 48.67925 | 12.24666 | 37974 ft | 442 kts | 308° |
| 2026-05-07 15:29 | 48.71619 | 12.17336 | 37975 ft | 439 kts | 299° |
| 2026-05-07 15:30 | 48.74394 | 12.09198 | 37979 ft | 436 kts | 290° |
| 2026-05-07 15:30 | 48.76185 | 12.00481 | 37975 ft | 434 kts | 280° |
| 2026-05-07 15:31 | 48.77218 | 11.91515 | 37976 ft | 433 kts | 277° |
| 2026-05-07 15:31 | 48.78171 | 11.82547 | 37979 ft | 433 kts | 278° |
| 2026-05-07 15:32 | 48.79130 | 11.73544 | 37986 ft | 433 kts | 278° |
| 2026-05-07 15:32 | 48.80076 | 11.64610 | 37987 ft | 433 kts | 278° |
| 2026-05-07 15:33 | 48.81015 | 11.55621 | 37821 ft | 429 kts | 278° |
| 2026-05-07 15:33 | 48.81471 | 11.51200 | 37263 ft | 431 kts | 278° |
| 2026-05-07 15:33 | 48.81933 | 11.46716 | 36738 ft | 426 kts | 278° |
| 2026-05-07 15:34 | 48.82382 | 11.42346 | 36240 ft | 414 kts | 278° |
| 2026-05-07 15:34 | 48.82816 | 11.38090 | 35330 ft | 414 kts | 278° |
| 2026-05-07 15:34 | 48.83280 | 11.33833 | 34400 ft | 415 kts | 280° |
| 2026-05-07 15:34 | 48.84005 | 11.29610 | 33624 ft | 411 kts | 287° |
| 2026-05-07 15:35 | 48.84989 | 11.25665 | 32916 ft | 405 kts | 293° |
| 2026-05-07 15:35 | 48.86239 | 11.21899 | 32081 ft | 402 kts | 299° |
| 2026-05-07 15:35 | 48.87749 | 11.18354 | 31133 ft | 400 kts | 305° |
| 2026-05-07 15:35 | 48.89480 | 11.15113 | 29809 ft | 398 kts | 311° |
| 2026-05-07 15:36 | 48.91422 | 11.12147 | 28278 ft | 399 kts | 315° |
| 2026-05-07 15:36 | 48.93460 | 11.09306 | 26643 ft | 407 kts | 316° |
| 2026-05-07 15:36 | 48.95555 | 11.06432 | 25448 ft | 407 kts | 316° |
| 2026-05-07 15:36 | 48.97579 | 11.03641 | 24596 ft | 389 kts | 316° |
| 2026-05-07 15:37 | 48.99506 | 11.00954 | 24108 ft | 365 kts | 316° |
| 2026-05-07 15:37 | 49.01347 | 10.98374 | 23980 ft | 348 kts | 316° |
| 2026-05-07 15:37 | 49.03091 | 10.95923 | 23985 ft | 335 kts | 316° |
| 2026-05-07 15:37 | 49.04790 | 10.93531 | 23987 ft | 334 kts | 316° |
| 2026-05-07 15:38 | 49.06485 | 10.91141 | 23987 ft | 333 kts | 316° |
| 2026-05-07 15:38 | 49.08173 | 10.88764 | 23990 ft | 333 kts | 316° |
| 2026-05-07 15:38 | 49.09869 | 10.86372 | 23989 ft | 333 kts | 316° |
| 2026-05-07 15:38 | 49.11584 | 10.83949 | 23990 ft | 334 kts | 316° |
| 2026-05-07 15:39 | 49.13285 | 10.81545 | 23991 ft | 334 kts | 316° |
| 2026-05-07 15:39 | 49.14967 | 10.79163 | 23996 ft | 334 kts | 316° |
| 2026-05-07 15:39 | 49.16678 | 10.76738 | 23993 ft | 334 kts | 316° |
| 2026-05-07 15:39 | 49.18361 | 10.74350 | 23989 ft | 334 kts | 316° |
| 2026-05-07 15:40 | 49.20048 | 10.71885 | 23993 ft | 334 kts | 314° |
| 2026-05-07 15:40 | 49.21663 | 10.69365 | 23998 ft | 335 kts | 314° |
| 2026-05-07 15:40 | 49.23297 | 10.66793 | 24002 ft | 335 kts | 313° |
| 2026-05-07 15:40 | 49.24897 | 10.64268 | 24004 ft | 335 kts | 314° |
| 2026-05-07 15:41 | 49.26515 | 10.61715 | 24009 ft | 335 kts | 314° |
| 2026-05-07 15:41 | 49.28141 | 10.59152 | 24011 ft | 335 kts | 314° |
| 2026-05-07 15:41 | 49.29755 | 10.56601 | 24010 ft | 336 kts | 314° |
| 2026-05-07 15:41 | 49.31381 | 10.54031 | 24012 ft | 337 kts | 314° |
| 2026-05-07 15:42 | 49.33006 | 10.51462 | 24014 ft | 336 kts | 314° |
| 2026-05-07 15:42 | 49.34625 | 10.48882 | 23811 ft | 336 kts | 313° |
| 2026-05-07 15:42 | 49.36157 | 10.46181 | 23556 ft | 335 kts | 309° |
| 2026-05-07 15:42 | 49.37553 | 10.43352 | 23460 ft | 335 kts | 306° |
| 2026-05-07 15:43 | 49.38897 | 10.40441 | 23308 ft | 335 kts | 305° |
| 2026-05-07 15:43 | 49.40235 | 10.37514 | 23063 ft | 334 kts | 305° |
| 2026-05-07 15:43 | 49.41560 | 10.34604 | 22796 ft | 332 kts | 305° |
| 2026-05-07 15:43 | 49.42876 | 10.31706 | 22530 ft | 331 kts | 305° |
| 2026-05-07 15:44 | 49.44188 | 10.28835 | 22264 ft | 330 kts | 305° |
| 2026-05-07 15:44 | 49.45503 | 10.25951 | 21997 ft | 329 kts | 305° |
| 2026-05-07 15:44 | 49.46804 | 10.23087 | 21733 ft | 328 kts | 304° |
| 2026-05-07 15:44 | 49.48101 | 10.20231 | 21468 ft | 327 kts | 304° |
| 2026-05-07 15:45 | 49.49398 | 10.17367 | 21206 ft | 326 kts | 304° |
| 2026-05-07 15:45 | 49.50687 | 10.14521 | 20944 ft | 325 kts | 304° |
| 2026-05-07 15:45 | 49.51971 | 10.11684 | 20682 ft | 324 kts | 304° |
| 2026-05-07 15:45 | 49.53265 | 10.08820 | 20278 ft | 322 kts | 304° |
| 2026-05-07 15:46 | 49.55778 | 10.03251 | 19522 ft | 317 kts | 304° |
| 2026-05-07 15:46 | 49.57032 | 10.00468 | 19046 ft | 316 kts | 304° |
| 2026-05-07 15:46 | 49.58288 | 9.97677 | 18609 ft | 315 kts | 305° |
| 2026-05-07 15:47 | 49.59524 | 9.94926 | 18182 ft | 313 kts | 305° |
| 2026-05-07 15:47 | 49.60760 | 9.92174 | 17767 ft | 311 kts | 305° |
| 2026-05-07 15:47 | 49.61976 | 9.89463 | 17352 ft | 310 kts | 305° |
| 2026-05-07 15:47 | 49.63193 | 9.86750 | 16937 ft | 308 kts | 305° |
| 2026-05-07 15:48 | 49.64400 | 9.84054 | 16538 ft | 306 kts | 305° |
| 2026-05-07 15:48 | 49.65602 | 9.81368 | 16139 ft | 304 kts | 305° |
| 2026-05-07 15:48 | 49.66803 | 9.78680 | 15744 ft | 302 kts | 304° |
| 2026-05-07 15:48 | 49.67973 | 9.76057 | 15358 ft | 300 kts | 305° |
| 2026-05-07 15:49 | 49.69150 | 9.73418 | 14981 ft | 298 kts | 304° |
| 2026-05-07 15:49 | 49.70320 | 9.70790 | 14605 ft | 296 kts | 304° |
| 2026-05-07 15:49 | 49.71479 | 9.68186 | 14224 ft | 294 kts | 305° |
| 2026-05-07 15:49 | 49.72626 | 9.65604 | 13833 ft | 293 kts | 305° |
| 2026-05-07 15:50 | 49.73774 | 9.63021 | 13454 ft | 291 kts | 305° |
| 2026-05-07 15:50 | 49.74911 | 9.60459 | 13055 ft | 290 kts | 304° |
| 2026-05-07 15:50 | 49.76041 | 9.57911 | 12667 ft | 286 kts | 304° |
| 2026-05-07 15:50 | 49.77140 | 9.55427 | 12373 ft | 271 kts | 304° |
| 2026-05-07 15:51 | 49.78167 | 9.53106 | 12109 ft | 257 kts | 304° |
| 2026-05-07 15:51 | 49.79156 | 9.50869 | 11855 ft | 250 kts | 304° |
| 2026-05-07 15:51 | 49.80127 | 9.48670 | 11546 ft | 248 kts | 304° |
| 2026-05-07 15:51 | 49.81101 | 9.46461 | 11216 ft | 246 kts | 304° |
| 2026-05-07 15:52 | 49.82055 | 9.44298 | 11011 ft | 243 kts | 304° |
| 2026-05-07 15:52 | 49.83011 | 9.42127 | 11013 ft | 245 kts | 304° |
| 2026-05-07 15:52 | 49.83966 | 9.39955 | 11009 ft | 246 kts | 304° |
| 2026-05-07 15:52 | 49.84923 | 9.37778 | 11012 ft | 246 kts | 304° |
| 2026-05-07 15:53 | 49.85825 | 9.35518 | 11004 ft | 246 kts | 298° |
| 2026-05-07 15:53 | 49.86527 | 9.33100 | 11016 ft | 247 kts | 290° |
| 2026-05-07 15:53 | 49.87052 | 9.30565 | 11012 ft | 247 kts | 287° |
| 2026-05-07 15:53 | 49.87539 | 9.28018 | 11006 ft | 247 kts | 287° |
| 2026-05-07 15:54 | 49.88018 | 9.25485 | 10876 ft | 243 kts | 287° |
| 2026-05-07 15:54 | 49.88494 | 9.22979 | 10511 ft | 244 kts | 287° |
| 2026-05-07 15:54 | 49.88974 | 9.20455 | 10189 ft | 244 kts | 287° |
| 2026-05-07 15:54 | 49.89453 | 9.17941 | 9881 ft | 242 kts | 287° |
| 2026-05-07 15:55 | 49.89934 | 9.15409 | 9423 ft | 248 kts | 287° |
| 2026-05-07 15:55 | 49.90424 | 9.12837 | 8925 ft | 254 kts | 287° |
| 2026-05-07 15:55 | 49.90923 | 9.10208 | 8432 ft | 259 kts | 287° |
| 2026-05-07 15:55 | 49.91434 | 9.07508 | 7933 ft | 264 kts | 288° |
| 2026-05-07 15:56 | 49.91958 | 9.04749 | 7421 ft | 268 kts | 288° |
| 2026-05-07 15:56 | 49.92480 | 9.01985 | 6924 ft | 272 kts | 288° |
| 2026-05-07 15:56 | 49.93008 | 8.99182 | 6420 ft | 268 kts | 288° |
| 2026-05-07 15:56 | 49.93511 | 8.96507 | 6106 ft | 252 kts | 288° |
| 2026-05-07 15:57 | 49.94181 | 8.94099 | 5804 ft | 234 kts | 308° |
| 2026-05-07 15:57 | 49.95358 | 8.92538 | 5413 ft | 223 kts | 338° |
| 2026-05-07 15:57 | 49.96878 | 8.92221 | 4864 ft | 225 kts | 10° |
| 2026-05-07 15:57 | 49.98307 | 8.93177 | 4486 ft | 226 kts | 30° |
| 2026-05-07 15:58 | 49.99622 | 8.94523 | 4198 ft | 224 kts | 33° |
| 2026-05-07 15:58 | 50.00884 | 8.95895 | 4013 ft | 221 kts | 33° |
| 2026-05-07 15:58 | 50.02134 | 8.97270 | 4010 ft | 223 kts | 33° |
| 2026-05-07 15:58 | 50.03404 | 8.98679 | 4008 ft | 223 kts | 33° |
| 2026-05-07 15:59 | 50.04604 | 9.00020 | 4004 ft | 223 kts | 33° |
| 2026-05-07 15:59 | 50.05957 | 9.01158 | 3991 ft | 220 kts | 11° |
| 2026-05-07 15:59 | 50.07462 | 9.01031 | 3999 ft | 219 kts | 338° |
| 2026-05-07 15:59 | 50.08647 | 8.99628 | 4001 ft | 221 kts | 306° |
| 2026-05-07 16:00 | 50.09246 | 8.97409 | 4022 ft | 225 kts | 287° |
| 2026-05-07 16:00 | 50.09600 | 8.95039 | 4015 ft | 226 kts | 284° |
| 2026-05-07 16:00 | 50.09911 | 8.92637 | 4007 ft | 226 kts | 284° |
| 2026-05-07 16:00 | 50.10214 | 8.90253 | 4006 ft | 226 kts | 283° |
| 2026-05-07 16:01 | 50.10489 | 8.87831 | 4000 ft | 227 kts | 275° |
| 2026-05-07 16:01 | 50.10317 | 8.85391 | 3907 ft | 231 kts | 258° |
| 2026-05-07 16:01 | 50.09849 | 8.82999 | 3620 ft | 229 kts | 253° |
| 2026-05-07 16:01 | 50.09322 | 8.80714 | 3309 ft | 220 kts | 252° |
| 2026-05-07 16:02 | 50.08794 | 8.78540 | 3012 ft | 210 kts | 252° |
| 2026-05-07 16:02 | 50.08289 | 8.76473 | 2739 ft | 201 kts | 252° |
| 2026-05-07 16:02 | 50.07814 | 8.74519 | 2555 ft | 183 kts | 252° |
| 2026-05-07 16:02 | 50.07385 | 8.72742 | 2284 ft | 174 kts | 252° |
| 2026-05-07 16:03 | 50.06976 | 8.71036 | 2058 ft | 163 kts | 252° |
| 2026-05-07 16:03 | 50.06588 | 8.69424 | 1817 ft | 153 kts | 252° |
| 2026-05-07 16:03 | 50.06227 | 8.67919 | 1591 ft | 143 kts | 252° |
| 2026-05-07 16:03 | 50.05893 | 8.66530 | 1405 ft | 131 kts | 251° |
| 2026-05-07 16:04 | 50.05579 | 8.65219 | 1248 ft | 129 kts | 251° |
| 2026-05-07 16:04 | 50.05266 | 8.63911 | 1092 ft | 128 kts | 251° |
| 2026-05-07 16:04 | 50.04959 | 8.62628 | 929 ft | 127 kts | 250° |
| 2026-05-07 16:04 | 50.04651 | 8.61344 | 759 ft | 126 kts | 250° |
| 2026-05-07 16:05 | 50.04345 | 8.60067 | 585 ft | 126 kts | 251° |
| 2026-05-07 16:05 | 50.04040 | 8.58797 | 414 ft | 124 kts | 251° |
| 2026-05-07 16:05 | 50.03757 | 8.57609 | 354 ft | 99 kts | 249° |
| 2026-05-07 16:05 | 50.03575 | 8.56850 | 342 ft | 52 kts | 250° |
| 2026-05-07 16:06 | 50.03457 | 8.56352 | 340 ft | 40 kts | 250° |
| 2026-05-07 16:06 | 50.03444 | 8.55996 | 337 ft | 29 kts | 280° |
| 2026-05-07 16:06 | 50.03467 | 8.55783 | 337 ft | 19 kts | 279° |
| 2026-05-07 16:06 | 50.03492 | 8.55550 | 337 ft | 24 kts | 277° |
| 2026-05-07 16:07 | 50.03451 | 8.55302 | 336 ft | 23 kts | 250° |
| 2026-05-07 16:07 | 50.03393 | 8.55058 | 335 ft | 23 kts | 250° |
| 2026-05-07 16:07 | 50.03351 | 8.54884 | 334 ft | 17 kts | 250° |
| 2026-05-07 16:07 | 50.03309 | 8.54703 | 333 ft | 18 kts | 249° |
| 2026-05-07 16:08 | 50.03292 | 8.54635 | 332 ft | 0 kts | 250° |
| 2026-05-07 16:08 | 50.03291 | 8.54631 | 332 ft | 1 kts | 250° |
| 2026-05-07 16:08 | 50.03286 | 8.54612 | 332 ft | 2 kts | 250° |
| 2026-05-07 16:08 | 50.03277 | 8.54571 | 331 ft | 3 kts | 250° |
| 2026-05-07 16:09 | 50.03274 | 8.54548 | 331 ft | 0 kts | 272° |
| 2026-05-07 16:09 | 50.03274 | 8.54542 | 331 ft | 1 kts | 274° |
| 2026-05-07 16:09 | 50.03277 | 8.54522 | 330 ft | 3 kts | 292° |
| 2026-05-07 16:09 | 50.03299 | 8.54489 | 331 ft | 5 kts | 337° |
| 2026-05-07 16:10 | 50.03347 | 8.54460 | 331 ft | 9 kts | 340° |
| 2026-05-07 16:10 | 50.03413 | 8.54423 | 332 ft | 10 kts | 340° |
| 2026-05-07 16:10 | 50.03505 | 8.54369 | 334 ft | 16 kts | 340° |
| 2026-05-07 16:10 | 50.03624 | 8.54306 | 337 ft | 18 kts | 3° |
| 2026-05-07 16:11 | 50.03693 | 8.54461 | 338 ft | 16 kts | 71° |
| 2026-05-07 16:11 | 50.03733 | 8.54632 | 339 ft | 17 kts | 70° |
| 2026-05-07 16:11 | 50.03773 | 8.54797 | 342 ft | 15 kts | 69° |
| 2026-05-07 16:11 | 50.03811 | 8.54952 | 343 ft | 15 kts | 70° |
| 2026-05-07 16:12 | 50.03846 | 8.55104 | 346 ft | 14 kts | 70° |
| 2026-05-07 16:12 | 50.03900 | 8.55325 | 348 ft | 22 kts | 69° |
| 2026-05-07 16:12 | 50.03946 | 8.55523 | 349 ft | 14 kts | 70° |
| 2026-05-07 16:12 | 50.03969 | 8.55617 | 349 ft | 8 kts | 69° |
| 2026-05-07 16:13 | 50.03990 | 8.55701 | 349 ft | 9 kts | 69° |
| 2026-05-07 16:13 | 50.04016 | 8.55810 | 348 ft | 12 kts | 71° |
| 2026-05-07 16:13 | 50.04033 | 8.55885 | 349 ft | 0 kts | 70° |
| 2026-05-07 16:14 | 50.04038 | 8.55905 | 350 ft | 7 kts | 70° |
| 2026-05-07 16:14 | 50.04086 | 8.55968 | 352 ft | 10 kts | 1° |
| 2026-05-07 16:14 | 50.04148 | 8.55940 | 353 ft | 4 kts | 340° |
| 2026-05-07 16:14 | 50.04156 | 8.55934 | 353 ft | 0 kts | 340° |
| 2026-05-07 16:15 | 50.04157 | 8.55934 | 353 ft | 0 kts | 340° |
| 2026-05-07 16:15 | 50.04162 | 8.55932 | 353 ft | 2 kts | 340° |
| 2026-05-07 16:15 | 50.04208 | 8.55912 | 355 ft | 13 kts | 6° |
| 2026-05-07 16:16 | 50.04284 | 8.55961 | 358 ft | 11 kts | 353° |
| 2026-05-07 16:16 | 50.04353 | 8.55924 | 361 ft | 10 kts | 340° |
| 2026-05-07 16:16 | 50.04426 | 8.55910 | 362 ft | 12 kts | 11° |
| 2026-05-07 16:16 | 50.04511 | 8.55949 | 363 ft | 12 kts | 17° |
| 2026-05-07 16:17 | 50.04573 | 8.56042 | 363 ft | 13 kts | 69° |
| 2026-05-07 16:17 | 50.04608 | 8.56186 | 363 ft | 14 kts | 70° |
| 2026-05-07 16:17 | 50.04644 | 8.56340 | 364 ft | 15 kts | 70° |
| 2026-05-07 16:17 | 50.04680 | 8.56492 | 367 ft | 14 kts | 70° |
| 2026-05-07 16:18 | 50.04729 | 8.56601 | 370 ft | 8 kts | 53° |
| 2026-05-07 16:18 | 50.04782 | 8.56599 | 370 ft | 8 kts | 340° |
| 2026-05-07 16:18 | 50.04807 | 8.56585 | 370 ft | 0 kts | 340° |